sensor_id;sensor_type;location;lat;lon;timestamp;pressure;altitude;pressure_sealevel;temperature;humidity
72570;BME280;60594;50.204;8.844;2023-07-31T00:01:09;99765.94;;;18.04;70.69
72570;BME280;60594;50.204;8.844;2023-07-31T00:03:36;99765.66;;;17.99;71.34
72570;BME280;60594;50.204;8.844;2023-07-31T00:06:02;99754.31;;;18.04;71.16
72570;BME280;60594;50.204;8.844;2023-07-31T00:08:29;99755.69;;;18.00;72.11
72570;BME280;60594;50.204;8.844;2023-07-31T00:10:55;99761.25;;;17.98;72.95
72570;BME280;60594;50.204;8.844;2023-07-31T00:13:22;99769.91;;;17.94;73.52
72570;BME280;60594;50.204;8.844;2023-07-31T00:15:48;99767.91;;;17.88;73.37
72570;BME280;60594;50.204;8.844;2023-07-31T00:18:15;99770.00;;;17.78;74.03
72570;BME280;60594;50.204;8.844;2023-07-31T00:20:41;99767.31;;;17.78;74.36
72570;BME280;60594;50.204;8.844;2023-07-31T00:23:08;99761.63;;;17.73;74.91
72570;BME280;60594;50.204;8.844;2023-07-31T00:25:34;99764.16;;;17.74;75.00
72570;BME280;60594;50.204;8.844;2023-07-31T00:28:01;99761.28;;;17.76;75.03
72570;BME280;60594;50.204;8.844;2023-07-31T00:30:28;99759.63;;;17.67;75.32
72570;BME280;60594;50.204;8.844;2023-07-31T00:32:54;99755.16;;;17.59;76.50
72570;BME280;60594;50.204;8.844;2023-07-31T00:35:21;99761.81;;;17.49;76.85
72570;BME280;60594;50.204;8.844;2023-07-31T00:37:47;99759.81;;;17.43;77.36
72570;BME280;60594;50.204;8.844;2023-07-31T00:40:13;99759.09;;;17.41;77.53
72570;BME280;60594;50.204;8.844;2023-07-31T00:42:40;99753.28;;;17.29;77.43
72570;BME280;60594;50.204;8.844;2023-07-31T00:45:08;99759.28;;;17.39;77.69
72570;BME280;60594;50.204;8.844;2023-07-31T00:47:35;99748.69;;;17.46;77.57
72570;BME280;60594;50.204;8.844;2023-07-31T00:50:01;99749.88;;;17.43;77.86
72570;BME280;60594;50.204;8.844;2023-07-31T00:52:28;99754.72;;;17.40;77.72
72570;BME280;60594;50.204;8.844;2023-07-31T00:54:56;99742.47;;;17.37;77.75
72570;BME280;60594;50.204;8.844;2023-07-31T00:57:23;99746.03;;;17.30;77.99
72570;BME280;60594;50.204;8.844;2023-07-31T00:59:51;99740.78;;;17.36;77.94
72570;BME280;60594;50.204;8.844;2023-07-31T01:02:18;99739.94;;;17.36;78.29
72570;BME280;60594;50.204;8.844;2023-07-31T01:04:45;99741.97;;;17.42;77.90
72570;BME280;60594;50.204;8.844;2023-07-31T01:10:26;99751.06;;;17.33;78.70
72570;BME280;60594;50.204;8.844;2023-07-31T01:12:57;99749.22;;;17.33;78.18
72570;BME280;60594;50.204;8.844;2023-07-31T01:15:24;99744.88;;;17.24;78.76
72570;BME280;60594;50.204;8.844;2023-07-31T01:17:51;99732.59;;;17.22;78.59
72570;BME280;60594;50.204;8.844;2023-07-31T01:20:22;99743.06;;;17.17;78.64
72570;BME280;60594;50.204;8.844;2023-07-31T01:23:33;99726.56;;;17.20;78.52
72570;BME280;60594;50.204;8.844;2023-07-31T01:31:25;99723.31;;;17.32;77.26
72570;BME280;60594;50.204;8.844;2023-07-31T01:33:53;99723.47;;;17.31;77.49
72570;BME280;60594;50.204;8.844;2023-07-31T01:36:21;99721.44;;;17.33;76.91
72570;BME280;60594;50.204;8.844;2023-07-31T01:38:48;99715.34;;;17.39;77.00
72570;BME280;60594;50.204;8.844;2023-07-31T01:41:17;99708.78;;;17.41;75.81
72570;BME280;60594;50.204;8.844;2023-07-31T01:43:44;99710.47;;;17.42;76.11
72570;BME280;60594;50.204;8.844;2023-07-31T01:46:10;99710.47;;;17.42;76.13
72570;BME280;60594;50.204;8.844;2023-07-31T01:48:37;99702.06;;;17.37;75.50
72570;BME280;60594;50.204;8.844;2023-07-31T01:51:03;99704.41;;;17.40;75.33
72570;BME280;60594;50.204;8.844;2023-07-31T01:53:31;99700.56;;;17.35;75.42
72570;BME280;60594;50.204;8.844;2023-07-31T01:55:58;99695.97;;;17.35;75.43
72570;BME280;60594;50.204;8.844;2023-07-31T01:58:24;99698.47;;;17.45;74.64
72570;BME280;60594;50.204;8.844;2023-07-31T02:00:51;99701.31;;;17.51;74.41
72570;BME280;60594;50.204;8.844;2023-07-31T02:03:17;99688.72;;;17.44;74.45
72570;BME280;60594;50.204;8.844;2023-07-31T02:05:45;99691.50;;;17.58;73.59
72570;BME280;60594;50.204;8.844;2023-07-31T02:08:13;99687.44;;;17.62;73.45
72570;BME280;60594;50.204;8.844;2023-07-31T02:10:39;99681.28;;;17.68;72.77
72570;BME280;60594;50.204;8.844;2023-07-31T02:13:06;99681.97;;;17.70;72.46
72570;BME280;60594;50.204;8.844;2023-07-31T02:15:34;99674.53;;;17.72;72.48
72570;BME280;60594;50.204;8.844;2023-07-31T02:18:00;99673.72;;;17.72;72.66
72570;BME280;60594;50.204;8.844;2023-07-31T02:20:27;99673.72;;;17.72;72.21
72570;BME280;60594;50.204;8.844;2023-07-31T02:22:53;99673.63;;;17.80;72.10
72570;BME280;60594;50.204;8.844;2023-07-31T02:25:20;99672.78;;;17.79;71.92
72570;BME280;60594;50.204;8.844;2023-07-31T02:27:47;99670.69;;;17.89;71.38
72570;BME280;60594;50.204;8.844;2023-07-31T02:30:15;99677.56;;;17.92;71.11
72570;BME280;60594;50.204;8.844;2023-07-31T02:32:41;99673.19;;;17.91;71.22
72570;BME280;60594;50.204;8.844;2023-07-31T02:35:08;99664.81;;;17.86;71.31
72570;BME280;60594;50.204;8.844;2023-07-31T02:37:34;99666.00;;;17.83;71.75
72570;BME280;60594;50.204;8.844;2023-07-31T02:40:01;99672.59;;;17.81;71.79
72570;BME280;60594;50.204;8.844;2023-07-31T02:42:30;99667.53;;;17.86;71.56
72570;BME280;60594;50.204;8.844;2023-07-31T02:44:57;99669.97;;;17.95;70.71
72570;BME280;60594;50.204;8.844;2023-07-31T02:47:23;99676.91;;;17.90;71.48
72570;BME280;60594;50.204;8.844;2023-07-31T02:49:50;99674.22;;;17.90;71.18
72570;BME280;60594;50.204;8.844;2023-07-31T02:52:17;99675.41;;;17.87;71.48
72570;BME280;60594;50.204;8.844;2023-07-31T02:54:46;99670.78;;;17.96;71.09
72570;BME280;60594;50.204;8.844;2023-07-31T02:57:13;99677.31;;;18.01;70.83
72570;BME280;60594;50.204;8.844;2023-07-31T02:59:40;99674.16;;;17.98;70.71
72570;BME280;60594;50.204;8.844;2023-07-31T03:02:06;99675.72;;;17.92;71.61
72570;BME280;60594;50.204;8.844;2023-07-31T03:04:33;99673.84;;;17.93;71.17
72570;BME280;60594;50.204;8.844;2023-07-31T03:07:00;99672.25;;;17.98;71.77
72570;BME280;60594;50.204;8.844;2023-07-31T03:09:27;99665.88;;;17.99;71.58
72570;BME280;60594;50.204;8.844;2023-07-31T03:11:54;99668.09;;;17.96;71.58
72570;BME280;60594;50.204;8.844;2023-07-31T03:14:20;99668.56;;;17.99;71.14
72570;BME280;60594;50.204;8.844;2023-07-31T03:16:47;99676.34;;;17.94;70.71
72570;BME280;60594;50.204;8.844;2023-07-31T03:19:14;99676.75;;;17.91;70.93
72570;BME280;60594;50.204;8.844;2023-07-31T03:21:41;99674.88;;;17.92;71.56
72570;BME280;60594;50.204;8.844;2023-07-31T03:24:07;99676.44;;;17.86;71.87
72570;BME280;60594;50.204;8.844;2023-07-31T03:26:34;99679.22;;;17.93;72.15
72570;BME280;60594;50.204;8.844;2023-07-31T03:29:03;99682.13;;;17.91;73.49
72570;BME280;60594;50.204;8.844;2023-07-31T03:31:30;99681.97;;;17.70;73.23
72570;BME280;60594;50.204;8.844;2023-07-31T03:33:57;99681.28;;;17.68;72.67
72570;BME280;60594;50.204;8.844;2023-07-31T03:36:25;99685.56;;;17.63;73.99
72570;BME280;60594;50.204;8.844;2023-07-31T03:38:53;99677.81;;;17.60;74.31
72570;BME280;60594;50.204;8.844;2023-07-31T03:41:20;99671.09;;;17.64;73.83
72570;BME280;60594;50.204;8.844;2023-07-31T03:43:49;99667.03;;;17.60;74.02
72570;BME280;60594;50.204;8.844;2023-07-31T03:46:19;99679.69;;;17.59;74.35
72570;BME280;60594;50.204;8.844;2023-07-31T03:48:46;99679.75;;;17.51;74.78
72570;BME280;60594;50.204;8.844;2023-07-31T03:51:12;99678.56;;;17.54;74.75
72570;BME280;60594;50.204;8.844;2023-07-31T03:53:39;99678.91;;;17.51;75.02
72570;BME280;60594;50.204;8.844;2023-07-31T03:56:06;99682.56;;;17.58;75.52
72570;BME280;60594;50.204;8.844;2023-07-31T03:58:32;99678.56;;;17.54;75.66
72570;BME280;60594;50.204;8.844;2023-07-31T04:00:59;99687.84;;;17.51;75.79
72570;BME280;60594;50.204;8.844;2023-07-31T04:03:26;99691.19;;;17.53;76.03
72570;BME280;60594;50.204;8.844;2023-07-31T04:05:55;99682.09;;;17.54;75.89
72570;BME280;60594;50.204;8.844;2023-07-31T04:08:23;99684.00;;;17.46;76.30
72570;BME280;60594;50.204;8.844;2023-07-31T04:10:50;99683.16;;;17.45;76.19
72570;BME280;60594;50.204;8.844;2023-07-31T04:13:17;99681.59;;;17.51;75.26
72570;BME280;60594;50.204;8.844;2023-07-31T04:15:48;99673.22;;;17.46;75.77
72570;BME280;60594;50.204;8.844;2023-07-31T04:18:17;99664.38;;;17.29;76.78
72570;BME280;60594;50.204;8.844;2023-07-31T04:20:44;99659.19;;;17.28;76.69
72570;BME280;60594;50.204;8.844;2023-07-31T04:23:11;99665.88;;;17.32;76.34
72570;BME280;60594;50.204;8.844;2023-07-31T04:25:37;99662.84;;;17.35;76.23
72570;BME280;60594;50.204;8.844;2023-07-31T04:28:04;99661.16;;;17.42;76.42
72570;BME280;60594;50.204;8.844;2023-07-31T04:30:31;99665.19;;;17.38;76.90
72570;BME280;60594;50.204;8.844;2023-07-31T04:32:57;99658.44;;;17.34;77.91
72570;BME280;60594;50.204;8.844;2023-07-31T04:35:24;99659.47;;;17.33;77.33
72570;BME280;60594;50.204;8.844;2023-07-31T04:37:51;99656.50;;;17.28;77.24
72570;BME280;60594;50.204;8.844;2023-07-31T04:40:17;99653.00;;;17.19;77.87
72570;BME280;60594;50.204;8.844;2023-07-31T04:42:44;99663.44;;;17.22;77.77
72570;BME280;60594;50.204;8.844;2023-07-31T04:45:10;99660.38;;;17.25;77.95
72570;BME280;60594;50.204;8.844;2023-07-31T04:47:37;99658.84;;;17.23;77.64
72570;BME280;60594;50.204;8.844;2023-07-31T04:50:04;99649.44;;;17.27;77.40
72570;BME280;60594;50.204;8.844;2023-07-31T04:52:31;99651.75;;;17.30;77.10
72570;BME280;60594;50.204;8.844;2023-07-31T04:54:58;99655.13;;;17.32;76.55
72570;BME280;60594;50.204;8.844;2023-07-31T04:57:24;99656.78;;;17.33;77.25
72570;BME280;60594;50.204;8.844;2023-07-31T04:59:51;99654.75;;;17.35;77.13
72570;BME280;60594;50.204;8.844;2023-07-31T05:02:18;99651.28;;;17.26;77.10
72570;BME280;60594;50.204;8.844;2023-07-31T05:04:44;99648.94;;;17.23;77.73
72570;BME280;60594;50.204;8.844;2023-07-31T05:07:11;99660.84;;;17.29;77.74
72570;BME280;60594;50.204;8.844;2023-07-31T05:09:40;99656.84;;;17.25;77.68
72570;BME280;60594;50.204;8.844;2023-07-31T05:12:08;99668.28;;;17.27;78.16
72570;BME280;60594;50.204;8.844;2023-07-31T05:14:36;99656.78;;;17.33;78.17
72570;BME280;60594;50.204;8.844;2023-07-31T05:17:03;99651.75;;;17.30;77.98
72570;BME280;60594;50.204;8.844;2023-07-31T05:19:30;99645.31;;;17.39;77.94
72570;BME280;60594;50.204;8.844;2023-07-31T05:21:56;99644.50;;;17.30;78.26
72570;BME280;60594;50.204;8.844;2023-07-31T05:24:23;99645.31;;;17.39;77.81
72570;BME280;60594;50.204;8.844;2023-07-31T05:26:50;99651.03;;;17.36;77.69
72570;BME280;60594;50.204;8.844;2023-07-31T05:29:16;99657.41;;;17.43;77.43
72570;BME280;60594;50.204;8.844;2023-07-31T05:31:43;99658.28;;;17.43;77.47
72570;BME280;60594;50.204;8.844;2023-07-31T05:34:10;99654.72;;;17.43;77.27
72570;BME280;60594;50.204;8.844;2023-07-31T05:36:41;99655.75;;;17.34;77.28
72570;BME280;60594;50.204;8.844;2023-07-31T05:39:07;99654.81;;;17.27;78.35
72570;BME280;60594;50.204;8.844;2023-07-31T05:41:35;99657.31;;;17.28;77.76
72570;BME280;60594;50.204;8.844;2023-07-31T05:44:02;99656.31;;;17.29;77.09
72570;BME280;60594;50.204;8.844;2023-07-31T05:46:30;99649.59;;;17.25;76.95
72570;BME280;60594;50.204;8.844;2023-07-31T05:48:57;99651.56;;;17.31;78.00
72570;BME280;60594;50.204;8.844;2023-07-31T05:51:24;99645.81;;;17.34;76.98
72570;BME280;60594;50.204;8.844;2023-07-31T05:53:50;99641.94;;;17.37;77.57
72570;BME280;60594;50.204;8.844;2023-07-31T05:56:18;99640.94;;;17.38;78.69
72570;BME280;60594;50.204;8.844;2023-07-31T05:58:44;99630.69;;;17.33;77.91
72570;BME280;60594;50.204;8.844;2023-07-31T06:01:11;99640.31;;;17.28;79.37
72570;BME280;60594;50.204;8.844;2023-07-31T06:03:38;99631.91;;;17.31;78.75
72570;BME280;60594;50.204;8.844;2023-07-31T06:06:05;99636.91;;;17.42;78.37
72570;BME280;60594;50.204;8.844;2023-07-31T06:08:31;99634.13;;;17.50;77.66
72570;BME280;60594;50.204;8.844;2023-07-31T06:10:59;99638.03;;;17.47;77.27
72570;BME280;60594;50.204;8.844;2023-07-31T06:13:25;99632.53;;;17.33;77.78
72570;BME280;60594;50.204;8.844;2023-07-31T06:15:52;99636.72;;;17.35;78.42
72570;BME280;60594;50.204;8.844;2023-07-31T06:18:18;99629.94;;;17.47;77.31
72570;BME280;60594;50.204;8.844;2023-07-31T06:20:45;99630.59;;;17.49;77.22
72570;BME280;60594;50.204;8.844;2023-07-31T06:23:11;99625.69;;;17.53;76.87
72570;BME280;60594;50.204;8.844;2023-07-31T06:25:38;99622.50;;;17.49;77.90
72570;BME280;60594;50.204;8.844;2023-07-31T06:28:05;99623.19;;;17.51;77.60
72570;BME280;60594;50.204;8.844;2023-07-31T06:30:31;99620.00;;;17.48;77.79
72570;BME280;60594;50.204;8.844;2023-07-31T06:32:58;99622.50;;;17.49;77.51
72570;BME280;60594;50.204;8.844;2023-07-31T06:35:25;99633.38;;;17.56;76.98
72570;BME280;60594;50.204;8.844;2023-07-31T06:37:52;99625.25;;;17.64;76.31
72570;BME280;60594;50.204;8.844;2023-07-31T06:40:19;99633.63;;;17.69;76.70
72570;BME280;60594;50.204;8.844;2023-07-31T06:42:46;99633.56;;;17.77;75.56
72570;BME280;60594;50.204;8.844;2023-07-31T06:45:13;99628.81;;;17.79;75.49
72570;BME280;60594;50.204;8.844;2023-07-31T06:47:39;99631.69;;;17.77;75.60
72570;BME280;60594;50.204;8.844;2023-07-31T06:50:07;99630.44;;;17.65;76.12
72570;BME280;60594;50.204;8.844;2023-07-31T06:52:34;99639.38;;;17.66;76.70
72570;BME280;60594;50.204;8.844;2023-07-31T06:55:03;99629.91;;;17.70;76.03
72570;BME280;60594;50.204;8.844;2023-07-31T06:57:30;99621.22;;;17.60;76.39
72570;BME280;60594;50.204;8.844;2023-07-31T06:59:57;99630.16;;;17.60;76.97
72570;BME280;60594;50.204;8.844;2023-07-31T07:02:24;99644.66;;;17.59;76.46
72570;BME280;60594;50.204;8.844;2023-07-31T07:04:51;99633.13;;;17.65;75.74
72570;BME280;60594;50.204;8.844;2023-07-31T07:07:17;99619.03;;;17.63;76.68
72570;BME280;60594;50.204;8.844;2023-07-31T07:09:44;99631.22;;;17.74;76.44
72570;BME280;60594;50.204;8.844;2023-07-31T07:12:11;99627.22;;;17.70;76.48
72570;BME280;60594;50.204;8.844;2023-07-31T07:14:37;99624.06;;;17.81;76.43
72570;BME280;60594;50.204;8.844;2023-07-31T07:17:04;99622.22;;;17.81;75.80
72570;BME280;60594;50.204;8.844;2023-07-31T07:19:31;99624.38;;;17.86;76.53
72570;BME280;60594;50.204;8.844;2023-07-31T07:21:57;99614.50;;;17.93;75.53
72570;BME280;60594;50.204;8.844;2023-07-31T07:24:26;99616.97;;;18.02;75.69
72570;BME280;60594;50.204;8.844;2023-07-31T07:26:53;99605.25;;;17.95;75.22
72570;BME280;60594;50.204;8.844;2023-07-31T07:29:20;99605.16;;;18.03;75.34
72570;BME280;60594;50.204;8.844;2023-07-31T07:31:46;99600.50;;;18.12;75.01
72570;BME280;60594;50.204;8.844;2023-07-31T07:34:13;99599.31;;;18.14;75.62
72570;BME280;60594;50.204;8.844;2023-07-31T07:36:40;99597.72;;;18.20;75.92
72570;BME280;60594;50.204;8.844;2023-07-31T07:39:09;99590.84;;;18.17;75.64
72570;BME280;60594;50.204;8.844;2023-07-31T07:41:36;99583.69;;;18.24;74.98
72570;BME280;60594;50.204;8.844;2023-07-31T07:44:03;99593.34;;;18.19;74.45
72570;BME280;60594;50.204;8.844;2023-07-31T07:46:31;99586.38;;;18.10;74.79
72570;BME280;60594;50.204;8.844;2023-07-31T07:48:57;99594.66;;;18.23;74.50
72570;BME280;60594;50.204;8.844;2023-07-31T07:51:24;99596.41;;;18.16;75.33
72570;BME280;60594;50.204;8.844;2023-07-31T07:53:51;99592.78;;;18.09;74.79
72570;BME280;60594;50.204;8.844;2023-07-31T07:56:18;99590.72;;;18.11;75.22
72570;BME280;60594;50.204;8.844;2023-07-31T07:58:48;99593.06;;;18.14;74.92
72570;BME280;60594;50.204;8.844;2023-07-31T08:01:15;99596.78;;;18.27;75.74
72570;BME280;60594;50.204;8.844;2023-07-31T08:03:42;99591.69;;;18.32;75.49
72570;BME280;60594;50.204;8.844;2023-07-31T08:06:09;99588.81;;;18.48;74.84
72570;BME280;60594;50.204;8.844;2023-07-31T08:08:37;99589.78;;;18.62;74.28
72570;BME280;60594;50.204;8.844;2023-07-31T08:11:04;99589.50;;;18.71;74.12
72570;BME280;60594;50.204;8.844;2023-07-31T08:13:31;99580.09;;;18.82;72.76
72570;BME280;60594;50.204;8.844;2023-07-31T08:15:57;99584.81;;;18.80;73.64
72570;BME280;60594;50.204;8.844;2023-07-31T08:18:24;99575.44;;;18.76;73.50
72570;BME280;60594;50.204;8.844;2023-07-31T08:20:51;99578.59;;;18.79;73.68
72570;BME280;60594;50.204;8.844;2023-07-31T08:23:18;99579.44;;;18.80;74.03
72570;BME280;60594;50.204;8.844;2023-07-31T08:25:45;99570.56;;;18.86;73.35
72570;BME280;60594;50.204;8.844;2023-07-31T08:28:12;99582.72;;;18.96;73.28
72570;BME280;60594;50.204;8.844;2023-07-31T08:30:39;99566.34;;;18.98;73.67
72570;BME280;60594;50.204;8.844;2023-07-31T08:33:06;99562.22;;;19.02;73.58
72570;BME280;60594;50.204;8.844;2023-07-31T08:35:32;99563.38;;;19.14;72.95
72570;BME280;60594;50.204;8.844;2023-07-31T08:37:59;99567.81;;;19.21;73.04
72570;BME280;60594;50.204;8.844;2023-07-31T08:40:26;99562.25;;;19.23;72.52
72570;BME280;60594;50.204;8.844;2023-07-31T08:42:56;99564.06;;;19.37;72.01
72570;BME280;60594;50.204;8.844;2023-07-31T08:45:23;99548.34;;;19.47;72.24
72570;BME280;60594;50.204;8.844;2023-07-31T08:47:51;99547.41;;;19.61;71.92
72570;BME280;60594;50.204;8.844;2023-07-31T08:50:19;99555.34;;;19.62;70.37
72570;BME280;60594;50.204;8.844;2023-07-31T08:52:47;99555.47;;;19.54;71.49
72570;BME280;60594;50.204;8.844;2023-07-31T08:55:14;99559.78;;;19.70;72.21
72570;BME280;60594;50.204;8.844;2023-07-31T08:57:42;99558.97;;;19.76;70.69
72570;BME280;60594;50.204;8.844;2023-07-31T09:00:10;99568.84;;;19.62;70.61
72570;BME280;60594;50.204;8.844;2023-07-31T09:02:48;99565.94;;;19.64;70.76
72570;BME280;60594;50.204;8.844;2023-07-31T09:05:18;99567.81;;;19.63;71.05
72570;BME280;60594;50.204;8.844;2023-07-31T09:07:47;99562.78;;;19.60;71.08
72570;BME280;60594;50.204;8.844;2023-07-31T09:10:13;99563.19;;;19.57;71.66
72570;BME280;60594;50.204;8.844;2023-07-31T09:12:40;99558.41;;;19.59;71.65
72570;BME280;60594;50.204;8.844;2023-07-31T09:15:06;99557.38;;;19.60;70.64
72570;BME280;60594;50.204;8.844;2023-07-31T09:17:35;99560.44;;;19.78;69.94
72570;BME280;60594;50.204;8.844;2023-07-31T09:20:19;99545.28;;;19.84;70.50
72570;BME280;60594;50.204;8.844;2023-07-31T09:22:47;99539.09;;;19.90;69.48
72570;BME280;60594;50.204;8.844;2023-07-31T09:25:16;99551.97;;;19.88;69.58
72570;BME280;60594;50.204;8.844;2023-07-31T09:28:03;99552.59;;;19.83;71.16
72570;BME280;60594;50.204;8.844;2023-07-31T09:30:30;99542.16;;;19.80;70.09
72570;BME280;60594;50.204;8.844;2023-07-31T09:33:02;99537.09;;;19.71;71.27
72570;BME280;60594;50.204;8.844;2023-07-31T09:35:34;99548.31;;;19.68;71.32
72570;BME280;60594;50.204;8.844;2023-07-31T09:38:04;99541.66;;;19.70;71.59
72570;BME280;60594;50.204;8.844;2023-07-31T09:40:36;99538.91;;;19.64;74.02
72570;BME280;60594;50.204;8.844;2023-07-31T09:43:07;99540.22;;;19.47;75.68
72570;BME280;60594;50.204;8.844;2023-07-31T09:45:35;99540.75;;;19.36;76.67
72570;BME280;60594;50.204;8.844;2023-07-31T09:48:03;99539.34;;;19.19;76.50
72570;BME280;60594;50.204;8.844;2023-07-31T09:50:30;99538.63;;;19.10;78.46
72570;BME280;60594;50.204;8.844;2023-07-31T09:52:57;99537.63;;;19.18;79.11
72570;BME280;60594;50.204;8.844;2023-07-31T09:55:24;99542.13;;;19.25;76.56
72570;BME280;60594;50.204;8.844;2023-07-31T09:57:51;99534.31;;;19.16;78.01
72570;BME280;60594;50.204;8.844;2023-07-31T10:00:18;99538.16;;;19.07;76.38
72570;BME280;60594;50.204;8.844;2023-07-31T10:02:46;99531.47;;;19.03;75.28
72570;BME280;60594;50.204;8.844;2023-07-31T10:05:14;99532.84;;;19.13;76.20
72570;BME280;60594;50.204;8.844;2023-07-31T10:07:48;99528.06;;;19.15;75.94
72570;BME280;60594;50.204;8.844;2023-07-31T10:10:18;99516.69;;;19.20;76.75
72570;BME280;60594;50.204;8.844;2023-07-31T10:12:48;99515.44;;;19.22;75.77
72570;BME280;60594;50.204;8.844;2023-07-31T10:15:15;99511.63;;;19.31;74.33
72570;BME280;60594;50.204;8.844;2023-07-31T10:17:42;99500.22;;;19.36;74.64
72570;BME280;60594;50.204;8.844;2023-07-31T10:20:09;99492.22;;;19.49;72.87
72570;BME280;60594;50.204;8.844;2023-07-31T10:22:37;99490.44;;;19.62;71.91
72570;BME280;60594;50.204;8.844;2023-07-31T10:25:07;99486.19;;;19.81;70.91
72570;BME280;60594;50.204;8.844;2023-07-31T10:27:35;99479.59;;;19.90;70.39
72570;BME280;60594;50.204;8.844;2023-07-31T10:30:03;99479.44;;;20.04;69.68
72570;BME280;60594;50.204;8.844;2023-07-31T10:32:31;99478.53;;;20.25;68.71
72570;BME280;60594;50.204;8.844;2023-07-31T10:34:58;99472.56;;;20.43;67.86
72570;BME280;60594;50.204;8.844;2023-07-31T10:40:00;99469.72;;;20.70;66.96
72570;BME280;60594;50.204;8.844;2023-07-31T10:42:30;99460.34;;;20.73;65.54
72570;BME280;60594;50.204;8.844;2023-07-31T10:44:59;99460.97;;;20.75;64.95
72570;BME280;60594;50.204;8.844;2023-07-31T10:47:26;99454.09;;;20.66;65.82
72570;BME280;60594;50.204;8.844;2023-07-31T10:49:52;99451.59;;;20.64;64.55
72570;BME280;60594;50.204;8.844;2023-07-31T10:52:21;99455.75;;;20.60;64.64
72570;BME280;60594;50.204;8.844;2023-07-31T10:57:50;99453.44;;;20.44;64.78
72570;BME280;60594;50.204;8.844;2023-07-31T11:00:28;99453.00;;;20.47;65.53
72570;BME280;60594;50.204;8.844;2023-07-31T11:05:43;99435.94;;;20.60;65.29
72570;BME280;60594;50.204;8.844;2023-07-31T11:08:11;99446.97;;;20.58;65.16
72570;BME280;60594;50.204;8.844;2023-07-31T11:10:38;99449.69;;;20.58;65.68
72570;BME280;60594;50.204;8.844;2023-07-31T11:13:05;99447.38;;;20.49;65.77
72570;BME280;60594;50.204;8.844;2023-07-31T11:15:31;99447.38;;;20.49;65.17
72570;BME280;60594;50.204;8.844;2023-07-31T11:18:00;99433.03;;;20.48;65.88
72570;BME280;60594;50.204;8.844;2023-07-31T11:20:30;99438.84;;;20.52;64.85
72570;BME280;60594;50.204;8.844;2023-07-31T11:23:06;99436.34;;;20.57;64.63
72570;BME280;60594;50.204;8.844;2023-07-31T11:25:33;99432.44;;;20.66;64.40
72570;BME280;60594;50.204;8.844;2023-07-31T11:28:13;99440.78;;;20.77;64.12
72570;BME280;60594;50.204;8.844;2023-07-31T11:30:41;99434.16;;;20.99;63.25
72570;BME280;60594;50.204;8.844;2023-07-31T11:33:09;99424.78;;;21.08;62.50
72570;BME280;60594;50.204;8.844;2023-07-31T11:35:41;99430.19;;;21.15;62.18
72570;BME280;60594;50.204;8.844;2023-07-31T11:38:08;99423.53;;;21.04;62.44
72570;BME280;60594;50.204;8.844;2023-07-31T11:40:42;99428.97;;;20.98;62.34
72570;BME280;60594;50.204;8.844;2023-07-31T11:43:09;99422.28;;;21.00;62.45
72570;BME280;60594;50.204;8.844;2023-07-31T11:45:38;99421.44;;;20.93;63.02
72570;BME280;60594;50.204;8.844;2023-07-31T11:48:06;99428.13;;;20.97;63.67
72570;BME280;60594;50.204;8.844;2023-07-31T11:50:33;99413.94;;;21.02;62.74
72570;BME280;60594;50.204;8.844;2023-07-31T11:53:07;99425.59;;;21.02;62.43
72570;BME280;60594;50.204;8.844;2023-07-31T11:55:34;99423.94;;;20.95;62.43
72570;BME280;60594;50.204;8.844;2023-07-31T11:58:01;99411.00;;;20.97;62.32
72570;BME280;60594;50.204;8.844;2023-07-31T12:00:28;99408.31;;;21.03;62.02
72570;BME280;60594;50.204;8.844;2023-07-31T12:02:54;99405.81;;;21.02;62.48
72570;BME280;60594;50.204;8.844;2023-07-31T12:05:22;99406.44;;;21.17;61.65
72570;BME280;60594;50.204;8.844;2023-07-31T12:07:51;99400.78;;;21.31;61.59
72570;BME280;60594;50.204;8.844;2023-07-31T12:10:25;99395.34;;;21.44;62.06
72570;BME280;60594;50.204;8.844;2023-07-31T12:15:56;99391.97;;;21.55;61.48
72570;BME280;60594;50.204;8.844;2023-07-31T12:18:25;99394.06;;;21.53;60.52
72570;BME280;60594;50.204;8.844;2023-07-31T12:20:59;99381.56;;;21.39;60.31
72570;BME280;60594;50.204;8.844;2023-07-31T12:23:28;99376.81;;;21.35;61.18
72570;BME280;60594;50.204;8.844;2023-07-31T12:26:07;99375.72;;;21.42;60.98
72570;BME280;60594;50.204;8.844;2023-07-31T12:28:42;99382.19;;;21.48;60.35
72570;BME280;60594;50.204;8.844;2023-07-31T12:31:22;99388.25;;;21.50;62.04
72570;BME280;60594;50.204;8.844;2023-07-31T12:33:50;99378.66;;;21.47;61.07
72570;BME280;60594;50.204;8.844;2023-07-31T12:36:20;99395.50;;;21.56;60.99
72570;BME280;60594;50.204;8.844;2023-07-31T12:38:47;99376.16;;;21.46;61.27
72570;BME280;60594;50.204;8.844;2023-07-31T12:41:15;99369.06;;;21.38;61.59
72570;BME280;60594;50.204;8.844;2023-07-31T12:43:43;99369.09;;;21.25;61.10
72570;BME280;60594;50.204;8.844;2023-07-31T12:46:10;99365.56;;;21.18;61.42
72570;BME280;60594;50.204;8.844;2023-07-31T12:48:37;99363.06;;;21.23;61.56
72570;BME280;60594;50.204;8.844;2023-07-31T12:51:04;99350.75;;;21.27;61.46
72570;BME280;60594;50.204;8.844;2023-07-31T12:53:31;99356.13;;;21.34;61.61
72570;BME280;60594;50.204;8.844;2023-07-31T12:55:57;99350.91;;;21.45;61.31
72570;BME280;60594;50.204;8.844;2023-07-31T12:58:24;99349.22;;;21.51;60.96
72570;BME280;60594;50.204;8.844;2023-07-31T13:00:51;99334.19;;;21.55;60.66
72570;BME280;60594;50.204;8.844;2023-07-31T13:03:18;99327.50;;;21.57;60.98
72570;BME280;60594;50.204;8.844;2023-07-31T13:05:44;99332.06;;;21.63;61.85
72570;BME280;60594;50.204;8.844;2023-07-31T13:08:11;99315.16;;;21.68;60.94
72570;BME280;60594;50.204;8.844;2023-07-31T13:10:38;99323.25;;;21.81;60.39
72570;BME280;60594;50.204;8.844;2023-07-31T13:13:04;99314.91;;;21.82;59.86
72570;BME280;60594;50.204;8.844;2023-07-31T13:15:31;99319.66;;;21.93;60.98
72570;BME280;60594;50.204;8.844;2023-07-31T13:17:57;99316.19;;;22.11;61.04
72570;BME280;60594;50.204;8.844;2023-07-31T13:20:24;99331.63;;;22.17;60.09
72570;BME280;60594;50.204;8.844;2023-07-31T13:22:50;99318.22;;;22.22;60.41